Time;durP1;ratioP1;P1;durP2;ratioP2;P2;SDS_P1;SDS_P2;PMS_P1;PMS_P2;Temp;Humidity;BMP_temperature;BMP_pressure;BME280_temperature;BME280_humidity;BME280_pressure;Samples;Min_cycle;Max_cycle;Signal;HPM_P1;HPM_P2
2021/06/12 00:01:09;;;;;;;19.67;11.85;;;;;;;;;;5070740;28;20052;-62
2021/06/12 00:03:37;;;;;;;17.88;11.13;;;;;;;;;;5071168;28;20053;-62
2021/06/12 00:06:05;;;;;;;19.95;12.20;;;;;;;;;;5070586;28;20088;-62
2021/06/12 00:08:34;;;;;;;17.10;12.38;;;;;;;;;;5071425;28;20578;-62
2021/06/12 00:11:02;;;;;;;19.48;12.48;;;;;;;;;;5071403;28;20052;-62
2021/06/12 00:13:30;;;;;;;15.55;11.50;;;;;;;;;;5070278;28;20048;-62
2021/06/12 00:15:58;;;;;;;13.55;11.15;;;;;;;;;;5071047;28;20127;-62
2021/06/12 00:18:26;;;;;;;15.73;11.18;;;;;;;;;;5070876;28;20062;-62
2021/06/12 00:20:54;;;;;;;19.38;11.35;;;;;;;;;;5072145;28;20403;-62
2021/06/12 00:23:23;;;;;;;15.57;11.73;;;;;;;;;;5070449;28;20040;-62
2021/06/12 00:25:52;;;;;;;17.27;12.07;;;;;;;;;;5052248;28;20546;-62
2021/06/12 00:28:20;;;;;;;17.50;11.05;;;;;;;;;;5057636;28;20148;-62
2021/06/12 00:30:47;;;;;;;14.27;10.90;;;;;;;;;;5070330;28;20571;-62
2021/06/12 00:33:15;;;;;;;19.50;11.18;;;;;;;;;;5069117;28;20575;-62
2021/06/12 00:35:43;;;;;;;17.10;11.35;;;;;;;;;;5070923;28;20044;-62
2021/06/12 00:38:11;;;;;;;17.08;11.85;;;;;;;;;;5069024;28;20045;-62
2021/06/12 00:40:39;;;;;;;15.93;10.70;;;;;;;;;;5071101;28;20057;-62
2021/06/12 00:43:09;;;;;;;21.10;11.80;;;;;;;;;;5071162;28;20155;-62
2021/06/12 00:45:36;;;;;;;16.92;11.38;;;;;;;;;;5070955;28;20045;-61
2021/06/12 00:48:05;;;;;;;15.32;10.77;;;;;;;;;;5069573;28;20158;-61
2021/06/12 00:50:33;;;;;;;15.18;10.70;;;;;;;;;;5070288;28;20484;-61
2021/06/12 00:53:05;;;;;;;13.68;10.38;;;;;;;;;;5069451;28;20054;-61
2021/06/12 00:55:34;;;;;;;14.57;10.88;;;;;;;;;;5059615;28;20502;-61
2021/06/12 00:58:01;;;;;;;14.05;10.23;;;;;;;;;;5070295;28;20045;-61
2021/06/12 01:00:31;;;;;;;15.10;10.70;;;;;;;;;;5070353;28;20148;-61
2021/06/12 01:02:58;;;;;;;14.55;9.32;;;;;;;;;;5060397;28;20057;-61
2021/06/12 01:05:26;;;;;;;12.85;9.95;;;;;;;;;;5051495;28;20352;-61
2021/06/12 01:07:54;;;;;;;16.27;9.30;;;;;;;;;;5048544;28;20127;-61
2021/06/12 01:10:22;;;;;;;13.57;9.65;;;;;;;;;;5047994;28;20404;-61
2021/06/12 01:12:55;;;;;;;17.58;9.85;;;;;;;;;;5049409;28;20131;-61
2021/06/12 01:15:23;;;;;;;11.73;9.32;;;;;;;;;;5050253;28;20465;-61
2021/06/12 01:17:55;;;;;;;14.10;9.30;;;;;;;;;;5047290;28;20044;-61
2021/06/12 01:20:50;;;;;;;16.90;9.65;;;;;;;;;;5051047;28;20377;-61
2021/06/12 01:23:35;;;;;;;12.30;9.18;;;;;;;;;;5049500;28;20056;-61
2021/06/12 01:26:08;;;;;;;11.57;8.17;;;;;;;;;;5049616;28;20053;-61
2021/06/12 01:28:40;;;;;;;13.13;9.18;;;;;;;;;;5039948;28;20147;-61
2021/06/12 01:31:11;;;;;;;11.80;8.98;;;;;;;;;;5050276;28;20091;-61
2021/06/12 01:33:41;;;;;;;13.55;8.75;;;;;;;;;;5049896;28;20045;-61
2021/06/12 01:36:09;;;;;;;13.45;8.68;;;;;;;;;;5044530;28;20484;-61
2021/06/12 01:38:38;;;;;;;13.25;8.82;;;;;;;;;;5049994;28;20147;-62
2021/06/12 01:41:07;;;;;;;11.38;9.15;;;;;;;;;;5049883;28;20493;-62
2021/06/12 01:43:36;;;;;;;17.00;9.05;;;;;;;;;;5048535;28;20420;-62
2021/06/12 01:46:05;;;;;;;15.52;8.77;;;;;;;;;;5049193;28;20107;-62
2021/06/12 01:48:35;;;;;;;12.10;8.25;;;;;;;;;;5049103;28;20136;-62
2021/06/12 01:51:04;;;;;;;11.02;8.13;;;;;;;;;;5043872;28;20142;-62
2021/06/12 01:53:33;;;;;;;14.60;9.02;;;;;;;;;;5048758;28;20037;-62
2021/06/12 01:56:03;;;;;;;11.95;8.45;;;;;;;;;;5049812;28;20112;-62
2021/06/12 01:58:31;;;;;;;11.75;8.65;;;;;;;;;;5047226;28;20041;-62
2021/06/12 02:00:59;;;;;;;13.13;8.55;;;;;;;;;;5049848;28;20051;-62
2021/06/12 02:03:27;;;;;;;12.52;8.70;;;;;;;;;;5060615;28;20139;-62
2021/06/12 02:05:56;;;;;;;11.32;8.27;;;;;;;;;;5069743;28;20518;-62
2021/06/12 02:08:24;;;;;;;13.55;8.00;;;;;;;;;;5054756;28;20055;-62
2021/06/12 02:10:52;;;;;;;10.30;7.90;;;;;;;;;;5050632;28;20052;-62
2021/06/12 02:13:22;;;;;;;12.95;8.20;;;;;;;;;;5069081;28;20401;-62
2021/06/12 02:15:52;;;;;;;14.98;8.95;;;;;;;;;;5066561;28;20044;-62
2021/06/12 02:18:20;;;;;;;11.77;8.35;;;;;;;;;;5056875;28;20492;-62
2021/06/12 02:20:50;;;;;;;11.20;8.38;;;;;;;;;;5057016;28;20131;-62
2021/06/12 02:23:20;;;;;;;12.70;8.25;;;;;;;;;;5070505;28;20044;-62
2021/06/12 02:25:48;;;;;;;9.77;7.50;;;;;;;;;;5067114;28;20434;-62
2021/06/12 02:28:17;;;;;;;11.35;7.82;;;;;;;;;;5069620;28;20080;-62
2021/06/12 02:30:47;;;;;;;11.88;7.50;;;;;;;;;;5068013;28;20054;-62
2021/06/12 02:33:16;;;;;;;13.77;8.77;;;;;;;;;;5068690;28;20148;-62
2021/06/12 02:35:43;;;;;;;10.98;7.70;;;;;;;;;;5060658;28;20136;-62
2021/06/12 02:38:11;;;;;;;11.95;8.00;;;;;;;;;;5069843;28;20135;-62
2021/06/12 02:40:40;;;;;;;11.40;7.35;;;;;;;;;;5068297;28;20452;-62
2021/06/12 02:43:08;;;;;;;11.57;6.85;;;;;;;;;;5071045;28;20087;-62
2021/06/12 02:45:36;;;;;;;10.10;7.10;;;;;;;;;;5068310;28;20135;-62
2021/06/12 02:48:06;;;;;;;10.32;7.43;;;;;;;;;;5068432;28;20059;-62
2021/06/12 02:50:35;;;;;;;11.38;7.53;;;;;;;;;;5068610;28;20045;-62
2021/06/12 02:53:05;;;;;;;10.15;7.00;;;;;;;;;;5050480;28;20051;-62
2021/06/12 02:55:34;;;;;;;12.73;7.80;;;;;;;;;;5058538;28;20084;-62
2021/06/12 02:58:04;;;;;;;10.32;7.00;;;;;;;;;;5058820;28;20041;-62
2021/06/12 03:00:34;;;;;;;10.50;6.80;;;;;;;;;;5065686;28;20071;-62
2021/06/12 03:03:02;;;;;;;11.35;7.53;;;;;;;;;;5063020;28;20143;-62
2021/06/12 03:05:31;;;;;;;10.20;7.20;;;;;;;;;;5053825;28;20128;-62
2021/06/12 03:08:00;;;;;;;9.43;6.82;;;;;;;;;;5042294;28;20053;-62
2021/06/12 03:10:28;;;;;;;8.70;6.43;;;;;;;;;;5042979;28;20129;-62
2021/06/12 03:12:56;;;;;;;11.38;7.22;;;;;;;;;;5052269;28;20449;-62
2021/06/12 03:15:26;;;;;;;11.90;7.28;;;;;;;;;;5052872;28;20049;-62
2021/06/12 03:17:54;;;;;;;9.07;6.65;;;;;;;;;;5051526;28;20075;-62
2021/06/12 03:20:24;;;;;;;8.00;6.85;;;;;;;;;;5051886;28;20044;-62
2021/06/12 03:22:52;;;;;;;7.65;6.18;;;;;;;;;;5052037;28;20057;-62
2021/06/12 03:25:21;;;;;;;8.30;6.43;;;;;;;;;;5052994;28;20045;-62
2021/06/12 03:27:49;;;;;;;9.20;7.22;;;;;;;;;;5051977;28;20131;-62
2021/06/12 03:30:17;;;;;;;9.70;7.25;;;;;;;;;;5051786;28;20045;-62
2021/06/12 03:32:47;;;;;;;10.10;7.10;;;;;;;;;;5051888;28;20473;-60
2021/06/12 03:35:15;;;;;;;15.70;8.00;;;;;;;;;;5051650;28;20069;-60
2021/06/12 03:37:43;;;;;;;9.30;6.82;;;;;;;;;;5051639;28;20053;-60
2021/06/12 03:40:11;;;;;;;9.02;6.88;;;;;;;;;;5051842;28;20067;-60
2021/06/12 03:42:39;;;;;;;9.82;6.70;;;;;;;;;;5053340;28;20141;-60
2021/06/12 03:45:09;;;;;;;9.23;6.43;;;;;;;;;;5051458;28;20055;-60
2021/06/12 03:47:37;;;;;;;10.80;6.70;;;;;;;;;;5052164;28;20049;-60
2021/06/12 03:50:08;;;;;;;11.32;6.45;;;;;;;;;;5051288;28;20408;-60
2021/06/12 03:52:36;;;;;;;8.23;6.68;;;;;;;;;;5040368;28;20049;-60
2021/06/12 03:55:05;;;;;;;9.07;6.75;;;;;;;;;;5051611;28;20555;-62
2021/06/12 03:57:32;;;;;;;9.02;6.53;;;;;;;;;;5038696;28;20044;-62
2021/06/12 04:00:00;;;;;;;10.30;6.47;;;;;;;;;;5051935;28;20132;-62
2021/06/12 04:02:28;;;;;;;8.98;6.22;;;;;;;;;;5050192;28;20148;-62
2021/06/12 04:04:57;;;;;;;9.10;6.68;;;;;;;;;;5068557;28;20047;-62
2021/06/12 04:07:27;;;;;;;8.27;6.85;;;;;;;;;;5071301;28;20484;-62
2021/06/12 04:09:55;;;;;;;10.25;7.00;;;;;;;;;;5071579;28;20516;-62
2021/06/12 04:12:22;;;;;;;10.95;6.95;;;;;;;;;;5060674;28;20049;-62
2021/06/12 04:14:50;;;;;;;9.88;6.95;;;;;;;;;;5071506;28;20055;-62
2021/06/12 04:17:18;;;;;;;7.93;6.72;;;;;;;;;;5071363;28;20044;-61
2021/06/12 04:19:46;;;;;;;9.65;7.07;;;;;;;;;;5071788;28;20143;-61
2021/06/12 04:22:14;;;;;;;10.20;6.80;;;;;;;;;;5070339;28;20462;-61
2021/06/12 04:24:43;;;;;;;9.45;6.18;;;;;;;;;;5072384;28;20048;-61
2021/06/12 04:27:11;;;;;;;10.35;6.68;;;;;;;;;;5070972;28;20414;-61
2021/06/12 04:29:39;;;;;;;7.80;5.97;;;;;;;;;;5071195;28;20587;-61
2021/06/12 04:32:07;;;;;;;10.95;6.53;;;;;;;;;;5071282;28;20131;-61
2021/06/12 04:34:35;;;;;;;10.95;6.65;;;;;;;;;;5072054;28;20040;-61
2021/06/12 04:37:03;;;;;;;8.25;7.05;;;;;;;;;;5069189;28;20469;-61
2021/06/12 04:39:30;;;;;;;11.95;6.90;;;;;;;;;;5071288;28;20068;-61
2021/06/12 04:41:59;;;;;;;9.63;7.00;;;;;;;;;;5060782;28;20119;-61
2021/06/12 04:44:27;;;;;;;12.85;7.90;;;;;;;;;;5070677;28;20124;-61
2021/06/12 04:46:55;;;;;;;11.93;7.43;;;;;;;;;;5064267;28;20053;-61
2021/06/12 04:49:23;;;;;;;11.95;6.82;;;;;;;;;;5069988;28;20063;-61
2021/06/12 04:51:51;;;;;;;9.75;7.07;;;;;;;;;;5071036;28;20321;-61
2021/06/12 04:54:18;;;;;;;9.23;6.93;;;;;;;;;;5061997;28;20080;-61
2021/06/12 04:56:46;;;;;;;8.70;6.93;;;;;;;;;;5051382;28;20052;-61
2021/06/12 04:59:15;;;;;;;9.95;7.22;;;;;;;;;;5068970;28;20044;-61
2021/06/12 05:01:43;;;;;;;13.05;7.55;;;;;;;;;;5069500;28;20127;-61
2021/06/12 05:04:11;;;;;;;9.20;7.32;;;;;;;;;;5068221;28;20091;-61
2021/06/12 05:06:39;;;;;;;9.15;6.80;;;;;;;;;;5058107;28;20143;-61
2021/06/12 05:09:06;;;;;;;7.75;6.57;;;;;;;;;;5063369;28;20131;-61
2021/06/12 05:11:34;;;;;;;11.10;7.07;;;;;;;;;;5069625;28;20135;-61
2021/06/12 05:14:02;;;;;;;10.10;7.60;;;;;;;;;;5069571;28;20076;-61
2021/06/12 05:16:33;;;;;;;10.43;7.43;;;;;;;;;;5069877;28;20047;-61
2021/06/12 05:19:00;;;;;;;12.32;8.88;;;;;;;;;;5053837;28;20060;-61
2021/06/12 05:21:28;;;;;;;8.57;7.05;;;;;;;;;;5069460;28;20131;-61
2021/06/12 05:23:56;;;;;;;9.68;6.72;;;;;;;;;;5067638;28;20055;-61
2021/06/12 05:26:24;;;;;;;8.75;7.07;;;;;;;;;;5063836;28;20635;-61
2021/06/12 05:28:51;;;;;;;10.23;6.78;;;;;;;;;;5069250;28;20048;-61
2021/06/12 05:31:19;;;;;;;7.57;6.45;;;;;;;;;;5068651;28;20040;-61
2021/06/12 05:33:49;;;;;;;9.68;6.85;;;;;;;;;;5063025;28;20103;-61
2021/06/12 05:36:17;;;;;;;11.95;7.28;;;;;;;;;;5054549;28;20047;-61
2021/06/12 05:38:44;;;;;;;8.52;6.88;;;;;;;;;;5065701;28;20195;-61
2021/06/12 05:41:13;;;;;;;8.10;7.05;;;;;;;;;;5061342;28;20044;-61
2021/06/12 05:43:40;;;;;;;8.60;7.30;;;;;;;;;;5062081;28;20054;-61
2021/06/12 05:46:08;;;;;;;12.70;6.65;;;;;;;;;;5066960;28;20136;-61
2021/06/12 05:48:36;;;;;;;10.40;6.97;;;;;;;;;;5067284;28;20096;-61
2021/06/12 05:51:05;;;;;;;7.10;6.32;;;;;;;;;;5068194;28;20044;-61
2021/06/12 05:53:33;;;;;;;10.55;6.25;;;;;;;;;;5062035;28;20051;-61
2021/06/12 05:56:01;;;;;;;8.20;6.78;;;;;;;;;;5064828;28;20504;-62
2021/06/12 05:58:29;;;;;;;9.27;6.70;;;;;;;;;;5069550;28;20068;-61
2021/06/12 06:00:57;;;;;;;10.45;6.93;;;;;;;;;;5066425;28;20048;-61
2021/06/12 06:03:25;;;;;;;8.38;6.65;;;;;;;;;;5068276;28;20048;-61
2021/06/12 06:05:53;;;;;;;7.50;6.38;;;;;;;;;;5061706;28;20087;-62
2021/06/12 06:08:24;;;;;;;7.75;6.65;;;;;;;;;;5057311;28;20135;-61
2021/06/12 06:10:51;;;;;;;10.35;7.00;;;;;;;;;;5068098;28;20177;-61
2021/06/12 06:13:20;;;;;;;12.90;6.45;;;;;;;;;;5058846;28;20044;-62
2021/06/12 06:15:52;;;;;;;9.80;6.43;;;;;;;;;;5066527;28;20078;-61
2021/06/12 06:18:20;;;;;;;10.45;6.22;;;;;;;;;;5069222;28;20053;-61
2021/06/12 06:20:47;;;;;;;8.98;6.18;;;;;;;;;;5053540;28;20047;-61
2021/06/12 06:23:15;;;;;;;7.55;6.75;;;;;;;;;;5067425;28;20597;-62
2021/06/12 06:25:45;;;;;;;7.20;6.03;;;;;;;;;;5064246;28;20462;-62
2021/06/12 06:28:13;;;;;;;8.65;6.07;;;;;;;;;;5068064;28;20492;-62
2021/06/12 06:30:41;;;;;;;6.68;5.82;;;;;;;;;;5061565;28;20507;-61
2021/06/12 06:33:09;;;;;;;8.50;6.38;;;;;;;;;;5069001;28;20491;-62
2021/06/12 06:35:37;;;;;;;6.78;5.97;;;;;;;;;;5069034;28;20481;-62
2021/06/12 06:38:05;;;;;;;8.75;6.40;;;;;;;;;;5069481;28;20048;-61
2021/06/12 06:40:33;;;;;;;6.53;5.45;;;;;;;;;;5058740;28;20090;-62
2021/06/12 06:43:02;;;;;;;7.90;5.80;;;;;;;;;;5063163;28;20379;-62
2021/06/12 06:45:30;;;;;;;7.13;5.95;;;;;;;;;;5062630;28;20533;-61
2021/06/12 06:47:58;;;;;;;7.70;5.57;;;;;;;;;;5070510;28;20087;-61
2021/06/12 06:50:26;;;;;;;7.95;6.10;;;;;;;;;;5072050;28;20511;-61
2021/06/12 06:52:54;;;;;;;7.30;6.28;;;;;;;;;;5066038;28;20433;-61
2021/06/12 06:55:22;;;;;;;10.18;6.68;;;;;;;;;;5064416;28;20052;-61
2021/06/12 06:57:50;;;;;;;7.03;6.13;;;;;;;;;;5069252;28;20131;-61
2021/06/12 07:00:19;;;;;;;7.40;5.70;;;;;;;;;;5072736;28;20059;-61
2021/06/12 07:02:47;;;;;;;6.82;5.85;;;;;;;;;;5060049;28;20552;-61
2021/06/12 07:05:15;;;;;;;8.85;5.68;;;;;;;;;;5067821;28;20127;-61
2021/06/12 07:07:43;;;;;;;8.32;6.45;;;;;;;;;;5070737;28;20134;-61
2021/06/12 07:10:11;;;;;;;7.88;5.85;;;;;;;;;;5071699;28;20062;-61
2021/06/12 07:12:39;;;;;;;8.02;5.78;;;;;;;;;;5067046;28;20098;-61
2021/06/12 07:15:08;;;;;;;7.97;5.53;;;;;;;;;;5070951;28;20087;-62
2021/06/12 07:17:37;;;;;;;6.70;5.97;;;;;;;;;;5063744;28;20119;-62
2021/06/12 07:20:06;;;;;;;7.93;5.85;;;;;;;;;;5070176;28;20143;-62
2021/06/12 07:22:35;;;;;;;7.72;6.35;;;;;;;;;;5071271;28;20048;-62
2021/06/12 07:25:03;;;;;;;11.45;6.38;;;;;;;;;;5059510;28;20049;-62
2021/06/12 07:27:31;;;;;;;9.65;5.95;;;;;;;;;;5071336;28;20135;-62
2021/06/12 07:29:59;;;;;;;6.95;5.68;;;;;;;;;;5057624;28;20048;-62
2021/06/12 07:32:26;;;;;;;8.27;6.28;;;;;;;;;;5067716;28;20155;-62
2021/06/12 07:34:56;;;;;;;9.18;5.85;;;;;;;;;;5057209;28;20119;-62
2021/06/12 07:37:24;;;;;;;8.32;6.35;;;;;;;;;;5070700;28;20496;-62
2021/06/12 07:39:52;;;;;;;10.85;6.30;;;;;;;;;;5067490;28;20081;-62
2021/06/12 07:42:20;;;;;;;8.48;6.38;;;;;;;;;;5051221;28;20080;-62
2021/06/12 07:44:47;;;;;;;9.70;6.18;;;;;;;;;;5069384;28;20079;-61
2021/06/12 07:47:15;;;;;;;8.25;6.53;;;;;;;;;;5067936;28;20048;-62
2021/06/12 07:49:43;;;;;;;7.32;6.47;;;;;;;;;;5070876;28;20044;-62
2021/06/12 07:52:12;;;;;;;8.73;6.40;;;;;;;;;;5071507;28;20062;-62
2021/06/12 07:54:40;;;;;;;9.48;6.97;;;;;;;;;;5070559;28;20049;-62
2021/06/12 07:57:08;;;;;;;8.95;6.70;;;;;;;;;;5069695;28;20478;-62
2021/06/12 07:59:36;;;;;;;6.90;6.18;;;;;;;;;;5072367;28;20441;-62
2021/06/12 08:02:04;;;;;;;8.98;6.38;;;;;;;;;;5072427;28;20053;-62
2021/06/12 08:04:32;;;;;;;8.15;6.60;;;;;;;;;;5062154;28;20044;-62
2021/06/12 08:06:59;;;;;;;11.15;6.57;;;;;;;;;;5070090;28;20091;-62
2021/06/12 08:09:29;;;;;;;7.97;6.20;;;;;;;;;;5071845;28;20087;-62
2021/06/12 08:11:57;;;;;;;10.93;6.90;;;;;;;;;;5070742;28;20986;-62
2021/06/12 08:14:25;;;;;;;7.47;6.40;;;;;;;;;;5070235;28;20567;-62
2021/06/12 08:16:53;;;;;;;7.63;5.88;;;;;;;;;;5070573;28;20078;-62
2021/06/12 08:19:21;;;;;;;7.57;6.45;;;;;;;;;;5069897;28;20044;-62
2021/06/12 08:21:49;;;;;;;8.00;6.68;;;;;;;;;;5064979;28;20044;-62
2021/06/12 08:24:17;;;;;;;9.63;5.93;;;;;;;;;;5068807;28;20467;-62
2021/06/12 08:26:46;;;;;;;8.35;6.07;;;;;;;;;;5069362;28;20056;-62
2021/06/12 08:29:14;;;;;;;9.43;6.43;;;;;;;;;;5070165;28;20127;-62
2021/06/12 08:31:42;;;;;;;9.95;6.25;;;;;;;;;;5071002;28;20243;-62
2021/06/12 08:34:10;;;;;;;9.27;6.57;;;;;;;;;;5072437;28;20044;-62
2021/06/12 08:36:37;;;;;;;12.25;7.78;;;;;;;;;;5069921;28;20066;-62
2021/06/12 08:39:06;;;;;;;7.38;6.60;;;;;;;;;;5070715;28;20055;-62
2021/06/12 08:41:33;;;;;;;9.65;7.28;;;;;;;;;;5053193;28;20128;-62
2021/06/12 08:44:03;;;;;;;9.40;6.93;;;;;;;;;;5053622;28;20428;-62
2021/06/12 08:46:31;;;;;;;8.98;6.65;;;;;;;;;;5070305;28;20072;-62
2021/06/12 08:48:59;;;;;;;7.90;6.57;;;;;;;;;;5068145;28;20451;-61
2021/06/12 08:51:26;;;;;;;8.88;7.07;;;;;;;;;;5070569;28;20063;-62
2021/06/12 08:53:54;;;;;;;11.23;7.22;;;;;;;;;;5071314;28;20146;-62
2021/06/12 08:56:22;;;;;;;8.50;7.00;;;;;;;;;;5070545;28;20045;-62
2021/06/12 08:58:50;;;;;;;10.13;7.38;;;;;;;;;;5070917;28;20127;-62
2021/06/12 09:01:21;;;;;;;9.55;7.13;;;;;;;;;;5071170;28;20075;-62
2021/06/12 09:03:50;;;;;;;7.93;6.95;;;;;;;;;;5068371;28;20163;-60
2021/06/12 09:06:19;;;;;;;7.97;6.55;;;;;;;;;;5070880;28;20123;-61
2021/06/12 09:08:47;;;;;;;9.00;6.43;;;;;;;;;;5068710;28;20091;-62
2021/06/12 09:11:15;;;;;;;7.95;6.10;;;;;;;;;;5071871;28;20049;-62
2021/06/12 09:13:45;;;;;;;6.72;6.07;;;;;;;;;;5070218;28;20072;-62
2021/06/12 09:16:24;;;;;;;10.45;7.38;;;;;;;;;;5069156;28;20155;-62
2021/06/12 09:19:11;;;;;;;8.75;6.97;;;;;;;;;;5066798;28;20160;-62
2021/06/12 09:21:41;;;;;;;8.55;6.55;;;;;;;;;;5066986;28;20075;-62
2021/06/12 09:24:21;;;;;;;9.90;7.00;;;;;;;;;;5068503;28;20049;-62
2021/06/12 09:26:50;;;;;;;14.43;7.00;;;;;;;;;;5062734;28;20056;-62
2021/06/12 09:29:20;;;;;;;7.28;6.47;;;;;;;;;;5068081;28;20510;-62
2021/06/12 09:31:50;;;;;;;7.70;6.38;;;;;;;;;;5066190;28;20123;-62
2021/06/12 09:34:19;;;;;;;8.63;6.25;;;;;;;;;;5062677;28;20399;-62
2021/06/12 09:36:48;;;;;;;8.18;6.85;;;;;;;;;;5065585;28;20075;-62
2021/06/12 09:39:17;;;;;;;9.07;6.45;;;;;;;;;;5063278;28;20080;-62
2021/06/12 09:41:46;;;;;;;7.45;6.70;;;;;;;;;;5067925;28;20131;-62
2021/06/12 09:44:29;;;;;;;9.38;6.10;;;;;;;;;;5069555;28;20052;-62
2021/06/12 09:46:58;;;;;;;7.97;6.25;;;;;;;;;;5068120;28;20131;-62
2021/06/12 09:49:34;;;;;;;6.90;5.95;;;;;;;;;;5070880;28;20055;-61
2021/06/12 09:52:04;;;;;;;8.30;5.50;;;;;;;;;;5070197;28;20503;-62
2021/06/12 09:54:39;;;;;;;7.05;5.50;;;;;;;;;;5070397;28;20045;-62
2021/06/12 09:57:08;;;;;;;9.93;6.05;;;;;;;;;;5066866;28;20072;-62
2021/06/12 09:59:39;;;;;;;7.00;5.95;;;;;;;;;;5067105;28;20142;-61
2021/06/12 10:02:09;;;;;;;6.63;5.93;;;;;;;;;;5069185;28;20055;-62
2021/06/12 10:04:38;;;;;;;7.20;5.32;;;;;;;;;;5069181;28;20087;-62
2021/06/12 10:07:05;;;;;;;6.80;6.10;;;;;;;;;;5068465;28;20049;-62
2021/06/12 10:09:33;;;;;;;7.53;5.60;;;;;;;;;;5068281;28;20048;-61
2021/06/12 10:12:01;;;;;;;7.55;5.78;;;;;;;;;;5070137;28;20045;-61
2021/06/12 10:14:29;;;;;;;7.85;5.53;;;;;;;;;;5070257;28;20421;-61
2021/06/12 10:16:57;;;;;;;6.22;5.60;;;;;;;;;;5067988;28;20499;-61
2021/06/12 10:19:27;;;;;;;9.45;5.57;;;;;;;;;;5069542;28;20045;-62
2021/06/12 10:21:55;;;;;;;6.97;5.78;;;;;;;;;;5063759;28;20143;-61
2021/06/12 10:24:23;;;;;;;7.90;5.20;;;;;;;;;;5068207;28;20479;-61
2021/06/12 10:26:51;;;;;;;9.63;5.72;;;;;;;;;;5069731;28;20067;-62
2021/06/12 10:29:19;;;;;;;7.68;5.90;;;;;;;;;;5068709;28;20131;-62
2021/06/12 10:31:47;;;;;;;6.57;5.30;;;;;;;;;;5069421;28;20045;-61
2021/06/12 10:34:15;;;;;;;4.30;3.90;;;;;;;;;;5070337;28;20127;-61
2021/06/12 10:36:57;;;;;;;8.77;3.95;;;;;;;;;;5069305;28;20072;-62
2021/06/12 10:39:26;;;;;;;8.70;4.60;;;;;;;;;;5068684;28;20055;-62
2021/06/12 10:42:10;;;;;;;5.07;4.28;;;;;;;;;;5069667;28;20047;-62
2021/06/12 10:44:38;;;;;;;5.87;3.53;;;;;;;;;;5069071;28;20092;-61
2021/06/12 10:47:07;;;;;;;6.32;4.10;;;;;;;;;;5067247;28;20124;-62
2021/06/12 10:49:35;;;;;;;7.53;4.13;;;;;;;;;;5069987;28;20048;-62
2021/06/12 10:52:08;;;;;;;4.35;3.92;;;;;;;;;;5067464;28;20045;-62
2021/06/12 10:54:37;;;;;;;5.35;4.30;;;;;;;;;;5068387;28;20068;-61
2021/06/12 10:57:16;;;;;;;4.75;4.03;;;;;;;;;;5065624;28;20140;-61
2021/06/12 10:59:51;;;;;;;7.57;4.55;;;;;;;;;;5067985;28;20040;-62
2021/06/12 11:02:24;;;;;;;6.28;3.92;;;;;;;;;;5065612;28;20124;-62
2021/06/12 11:04:55;;;;;;;4.63;4.22;;;;;;;;;;5070145;28;20048;-61
2021/06/12 11:07:28;;;;;;;5.35;4.22;;;;;;;;;;5070390;28;20090;-62
2021/06/12 11:10:16;;;;;;;4.45;4.05;;;;;;;;;;5070744;28;20134;-61
2021/06/12 11:12:44;;;;;;;4.28;3.85;;;;;;;;;;5070088;28;20045;-62
2021/06/12 11:15:14;;;;;;;5.05;4.20;;;;;;;;;;5071543;28;20075;-62
2021/06/12 11:17:43;;;;;;;7.40;3.83;;;;;;;;;;5070153;28;20467;-61
2021/06/12 11:20:28;;;;;;;6.40;4.50;;;;;;;;;;5071669;28;20037;-61
2021/06/12 11:23:01;;;;;;;4.85;3.83;;;;;;;;;;5075272;28;20080;-61
2021/06/12 11:25:40;;;;;;;4.18;3.45;;;;;;;;;;5076265;28;20036;-62
2021/06/12 11:28:22;;;;;;;4.60;3.30;;;;;;;;;;5072268;28;20502;-61
2021/06/12 11:30:50;;;;;;;5.50;3.45;;;;;;;;;;5071193;28;20047;-62
2021/06/12 11:33:18;;;;;;;5.45;3.58;;;;;;;;;;5072810;28;20082;-61
2021/06/12 11:35:47;;;;;;;4.00;3.13;;;;;;;;;;5073532;28;20135;-61
2021/06/12 11:38:17;;;;;;;5.10;3.78;;;;;;;;;;5072622;28;20087;-61
2021/06/12 11:40:53;;;;;;;5.60;3.47;;;;;;;;;;5073967;28;20084;-61
2021/06/12 11:43:37;;;;;;;4.13;3.30;;;;;;;;;;5069871;28;20051;-59
2021/06/12 11:46:06;;;;;;;4.00;3.22;;;;;;;;;;5068100;28;20096;-59
2021/06/12 11:48:37;;;;;;;3.70;3.33;;;;;;;;;;5061810;28;20187;-59
2021/06/12 11:51:12;;;;;;;5.28;3.50;;;;;;;;;;5068120;28;20084;-59
2021/06/12 11:53:42;;;;;;;5.82;3.78;;;;;;;;;;5072691;28;20044;-58
2021/06/12 11:56:09;;;;;;;4.85;3.30;;;;;;;;;;5070660;28;20158;-59
2021/06/12 11:58:52;;;;;;;5.97;3.45;;;;;;;;;;5068106;28;20041;-57
2021/06/12 12:01:33;;;;;;;4.05;3.65;;;;;;;;;;5072733;28;20048;-58
2021/06/12 12:04:04;;;;;;;5.30;3.78;;;;;;;;;;5072678;28;20060;-57
2021/06/12 12:06:32;;;;;;;4.28;3.88;;;;;;;;;;5066120;28;20130;-57
2021/06/12 12:09:02;;;;;;;4.03;3.63;;;;;;;;;;5053185;28;20349;-57
2021/06/12 12:11:30;;;;;;;4.57;3.80;;;;;;;;;;5066304;28;20040;-57
2021/06/12 12:14:00;;;;;;;5.95;3.67;;;;;;;;;;5070047;28;20044;-57
2021/06/12 12:16:28;;;;;;;4.20;3.80;;;;;;;;;;5068671;28;20496;-57
2021/06/12 12:18:57;;;;;;;3.92;3.60;;;;;;;;;;5066018;28;20408;-58
2021/06/12 12:21:36;;;;;;;6.43;3.40;;;;;;;;;;5062008;28;20436;-57
2021/06/12 12:24:07;;;;;;;4.05;3.60;;;;;;;;;;5067336;28;20045;-57
2021/06/12 12:26:35;;;;;;;4.00;3.42;;;;;;;;;;5070618;28;20567;-58
2021/06/12 12:29:06;;;;;;;4.53;3.42;;;;;;;;;;5067714;28;20068;-58
2021/06/12 12:31:41;;;;;;;6.30;4.00;;;;;;;;;;5066796;28;20516;-57
2021/06/12 12:34:10;;;;;;;5.05;3.90;;;;;;;;;;5071423;28;20044;-58
2021/06/12 12:36:44;;;;;;;4.93;4.03;;;;;;;;;;5070766;28;20431;-56
2021/06/12 12:39:15;;;;;;;6.07;4.07;;;;;;;;;;5070772;28;20067;-60
2021/06/12 12:42:01;;;;;;;4.12;3.52;;;;;;;;;;1267965;28;10022515;-57
2021/06/12 12:44:30;;;;;;;5.28;4.05;;;;;;;;;;4718454;28;10001166;-57
2021/06/12 12:46:58;;;;;;;5.45;3.80;;;;;;;;;;5062751;28;20083;-57
2021/06/12 12:49:27;;;;;;;5.97;4.22;;;;;;;;;;5071774;28;20412;-57
2021/06/12 12:51:56;;;;;;;5.28;4.60;;;;;;;;;;5070442;28;20137;-57
2021/06/12 12:54:26;;;;;;;5.03;4.43;;;;;;;;;;5059959;28;20082;-57
2021/06/12 12:56:56;;;;;;;5.07;3.85;;;;;;;;;;5070236;28;20131;-57
2021/06/12 12:59:25;;;;;;;7.57;4.72;;;;;;;;;;5068812;28;20083;-57
2021/06/12 13:01:53;;;;;;;4.55;3.92;;;;;;;;;;5068777;28;20586;-57
2021/06/12 13:04:27;;;;;;;5.82;4.22;;;;;;;;;;5062755;28;20135;-58
2021/06/12 13:07:03;;;;;;;4.38;3.85;;;;;;;;;;5059396;28;20072;-57
2021/06/12 13:09:32;;;;;;;6.10;4.22;;;;;;;;;;5065244;28;20471;-57
2021/06/12 13:12:05;;;;;;;4.78;3.95;;;;;;;;;;5062364;28;20057;-57
2021/06/12 13:14:34;;;;;;;5.60;4.00;;;;;;;;;;5072012;28;20048;-56
2021/06/12 13:17:04;;;;;;;4.95;4.15;;;;;;;;;;5056788;28;20092;-57
2021/06/12 13:19:33;;;;;;;6.00;4.47;;;;;;;;;;5066211;28;20044;-57
2021/06/12 13:22:01;;;;;;;6.90;5.03;;;;;;;;;;5070205;28;20048;-57
2021/06/12 13:24:30;;;;;;;5.85;4.90;;;;;;;;;;5059120;28;20049;-57
2021/06/12 13:27:00;;;;;;;6.00;4.63;;;;;;;;;;5056313;28;20152;-56
2021/06/12 13:29:28;;;;;;;5.45;4.95;;;;;;;;;;5069302;28;20055;-56
2021/06/12 13:31:56;;;;;;;6.20;4.50;;;;;;;;;;5069332;28;20127;-57
2021/06/12 13:34:28;;;;;;;4.80;4.30;;;;;;;;;;5069579;28;20050;-56
2021/06/12 13:36:58;;;;;;;10.88;4.95;;;;;;;;;;5068706;28;20054;-57
2021/06/12 13:39:31;;;;;;;7.45;4.55;;;;;;;;;;5068872;28;20095;-57
2021/06/12 13:42:14;;;;;;;5.03;4.22;;;;;;;;;;5065955;28;20041;-57
2021/06/12 13:44:45;;;;;;;4.70;4.10;;;;;;;;;;5051982;28;20131;-59
2021/06/12 13:47:13;;;;;;;5.00;4.45;;;;;;;;;;5060246;28;20036;-58
2021/06/12 13:49:41;;;;;;;5.15;4.30;;;;;;;;;;5063633;28;20496;-59
2021/06/12 13:52:09;;;;;;;5.70;4.35;;;;;;;;;;5056629;28;20052;-59
2021/06/12 13:54:39;;;;;;;5.80;4.70;;;;;;;;;;5069457;28;20040;-59
2021/06/12 13:57:07;;;;;;;7.20;4.65;;;;;;;;;;5070320;28;20169;-59
2021/06/12 13:59:36;;;;;;;5.22;4.75;;;;;;;;;;5059784;28;20556;-59
2021/06/12 14:02:05;;;;;;;7.25;4.85;;;;;;;;;;5053481;28;20135;-60
2021/06/12 14:04:37;;;;;;;5.00;4.50;;;;;;;;;;5059169;28;20412;-60
2021/06/12 14:07:04;;;;;;;6.30;5.22;;;;;;;;;;5069912;28;20048;-59
2021/06/12 14:09:32;;;;;;;6.22;4.82;;;;;;;;;;5071044;28;20531;-59
2021/06/12 14:12:00;;;;;;;6.13;4.65;;;;;;;;;;5068529;28;20090;-59
2021/06/12 14:14:28;;;;;;;8.88;5.38;;;;;;;;;;5067383;28;20056;-58
2021/06/12 14:16:58;;;;;;;6.10;5.32;;;;;;;;;;5056875;28;20072;-59
2021/06/12 14:19:25;;;;;;;8.10;5.05;;;;;;;;;;5067833;28;20372;-58
2021/06/12 14:21:53;;;;;;;7.22;5.63;;;;;;;;;;5052069;28;20041;-59
2021/06/12 14:24:21;;;;;;;5.68;5.18;;;;;;;;;;5056538;28;20119;-59
2021/06/12 14:26:51;;;;;;;6.75;5.65;;;;;;;;;;5065543;28;20143;-59
2021/06/12 14:29:19;;;;;;;7.93;5.57;;;;;;;;;;5054375;28;20120;-58
2021/06/12 14:31:47;;;;;;;8.77;5.70;;;;;;;;;;5068630;28;20057;-59
2021/06/12 14:34:17;;;;;;;7.95;5.93;;;;;;;;;;5069296;28;20102;-60
2021/06/12 14:36:47;;;;;;;6.38;5.78;;;;;;;;;;5067974;28;20053;-60
2021/06/12 14:39:17;;;;;;;6.95;5.40;;;;;;;;;;5070257;28;20079;-60
2021/06/12 14:41:45;;;;;;;9.88;5.78;;;;;;;;;;5069934;28;20052;-59
2021/06/12 14:44:14;;;;;;;6.43;5.78;;;;;;;;;;5068107;28;20075;-59
2021/06/12 14:46:42;;;;;;;6.30;5.75;;;;;;;;;;5068269;28;20127;-60
2021/06/12 14:49:10;;;;;;;8.63;5.50;;;;;;;;;;5069126;28;20045;-59
2021/06/12 14:51:40;;;;;;;6.07;5.30;;;;;;;;;;5058204;28;20153;-59